Time;durP1;ratioP1;P1;durP2;ratioP2;P2;SDS_P1;SDS_P2;PMS_P1;PMS_P2;Temp;Humidity;BMP_temperature;BMP_pressure;BME280_temperature;BME280_humidity;BME280_pressure;Samples;Min_cycle;Max_cycle;Signal;HPM_P1;HPM_P2
2023/01/28 00:03:16;;;;;;;2.65;2.45;;;;;;;;;;8292163;28;20044;-64
2023/01/28 00:07:18;;;;;;;2.50;2.25;;;;;;;;;;8292099;28;20056;-64
2023/01/28 00:11:18;;;;;;;2.63;2.42;;;;;;;;;;8291474;28;20079;-64
2023/01/28 00:15:18;;;;;;;2.47;2.28;;;;;;;;;;8289506;28;20041;-65
2023/01/28 00:19:18;;;;;;;4.15;2.42;;;;;;;;;;8291625;28;20406;-64
2023/01/28 00:23:18;;;;;;;2.47;2.28;;;;;;;;;;8289619;28;20576;-65
2023/01/28 00:27:18;;;;;;;2.95;2.65;;;;;;;;;;8291112;28;20750;-65
2023/01/28 00:31:23;;;;;;;2.60;2.28;;;;;;;;;;8289559;28;20057;-65
2023/01/28 00:35:23;;;;;;;2.83;2.50;;;;;;;;;;8291497;28;20496;-65
2023/01/28 00:39:24;;;;;;;2.90;2.60;;;;;;;;;;8288250;28;20706;-65
2023/01/28 00:43:24;;;;;;;3.08;2.80;;;;;;;;;;8290559;28;20026;-64
2023/01/28 00:47:25;;;;;;;2.90;2.60;;;;;;;;;;8287611;28;20061;-65
2023/01/28 00:51:25;;;;;;;3.30;2.47;;;;;;;;;;8291000;28;20487;-64
2023/01/28 00:55:25;;;;;;;2.83;2.30;;;;;;;;;;8293046;28;20576;-64
2023/01/28 00:59:26;;;;;;;2.45;2.20;;;;;;;;;;8287648;28;20026;-64
2023/01/28 01:03:26;;;;;;;3.15;2.33;;;;;;;;;;8291242;28;20063;-64
2023/01/28 01:07:33;;;;;;;3.42;3.03;;;;;;;;;;8288930;28;20216;-65
2023/01/28 01:11:33;;;;;;;3.67;2.55;;;;;;;;;;8285549;28;20029;-64
2023/01/28 01:15:34;;;;;;;3.40;2.90;;;;;;;;;;8285236;28;20045;-65
2023/01/28 01:19:35;;;;;;;3.28;2.88;;;;;;;;;;8286487;28;20038;-64
2023/01/28 01:23:36;;;;;;;4.43;2.67;;;;;;;;;;8289317;28;20041;-65
2023/01/28 01:27:36;;;;;;;2.58;2.38;;;;;;;;;;8287927;28;20017;-64
2023/01/28 01:31:36;;;;;;;2.20;2.00;;;;;;;;;;8288802;28;20053;-64
2023/01/28 01:35:36;;;;;;;3.65;2.40;;;;;;;;;;8290056;28;20479;-64
2023/01/28 01:39:36;;;;;;;3.55;2.80;;;;;;;;;;8290115;28;20029;-64
2023/01/28 01:43:47;;;;;;;2.60;2.40;;;;;;;;;;8288393;28;20032;-64
2023/01/28 01:47:58;;;;;;;3.03;2.30;;;;;;;;;;8288271;28;20128;-64
2023/01/28 01:52:09;;;;;;;5.43;2.45;;;;;;;;;;8288698;28;20048;-64
2023/01/28 01:56:10;;;;;;;2.92;2.30;;;;;;;;;;8290377;28;20135;-64
2023/01/28 02:00:11;;;;;;;2.83;2.30;;;;;;;;;;8288287;28;20045;-64
2023/01/28 02:04:29;;;;;;;2.50;2.15;;;;;;;;;;8294843;28;20187;-64
2023/01/28 02:08:29;;;;;;;2.63;2.42;;;;;;;;;;8294914;28;20021;-64
2023/01/28 02:12:32;;;;;;;3.10;2.13;;;;;;;;;;8296097;28;20025;-64
2023/01/28 02:16:32;;;;;;;3.15;2.53;;;;;;;;;;8293059;28;20579;-64
2023/01/28 02:20:36;;;;;;;2.65;2.45;;;;;;;;;;8294945;28;20033;-64
2023/01/28 02:24:47;;;;;;;2.00;1.90;;;;;;;;;;8292198;28;20032;-64
2023/01/28 02:28:56;;;;;;;3.55;2.40;;;;;;;;;;8293533;28;20489;-64
2023/01/28 02:33:01;;;;;;;2.88;2.10;;;;;;;;;;8293638;28;20049;-65
2023/01/28 02:37:13;;;;;;;6.05;2.50;;;;;;;;;;8292835;28;20857;-64
2023/01/28 02:41:23;;;;;;;3.15;2.45;;;;;;;;;;8294036;28;20028;-64
2023/01/28 02:47:56;;;;;;;2.45;2.25;;;;;;;;;;8292033;28;20058;-64
2023/01/28 02:49:50;;;;;;;2.47;2.22;;;;;;;;;;8292615;28;20416;-64
2023/01/28 02:53:56;;;;;;;2.53;2.30;;;;;;;;;;8293425;28;20068;-64
2023/01/28 02:58:16;;;;;;;2.50;2.30;;;;;;;;;;8291551;28;20449;-64
2023/01/28 03:02:17;;;;;;;7.55;2.22;;;;;;;;;;8291277;28;20155;-64
2023/01/28 03:06:21;;;;;;;2.35;2.15;;;;;;;;;;8293451;28;20056;-64
2023/01/28 03:10:21;;;;;;;;;;;;;;;;;;8291459;28;20031;-65
2023/01/28 03:40:29;;;;;;;3.67;2.15;;;;;;;;;;8292783;28;22008;-64
2023/01/28 03:48:48;;;;;;;2.22;2.03;;;;;;;;;;8291977;28;20985;-64
2023/01/28 03:52:48;;;;;;;2.67;1.75;;;;;;;;;;8290030;28;20025;-65
2023/01/28 03:56:48;;;;;;;2.40;2.13;;;;;;;;;;8291311;28;20059;-64
2023/01/28 04:00:49;;;;;;;2.22;1.63;;;;;;;;;;8289506;28;20033;-64
2023/01/28 04:04:49;;;;;;;3.25;1.90;;;;;;;;;;8287500;28;20117;-64
2023/01/28 04:08:53;;;;;;;2.85;2.10;;;;;;;;;;8290322;28;20037;-64
2023/01/28 04:12:53;;;;;;;2.03;1.80;;;;;;;;;;8291872;28;20024;-64
2023/01/28 04:16:53;;;;;;;2.05;1.90;;;;;;;;;;8289284;28;20576;-64
2023/01/28 04:20:54;;;;;;;1.75;1.60;;;;;;;;;;8291542;28;20021;-65
2023/01/28 04:24:54;;;;;;;3.45;1.50;;;;;;;;;;8290659;28;20083;-64
2023/01/28 04:28:54;;;;;;;1.70;1.60;;;;;;;;;;8290976;28;20021;-64
2023/01/28 04:32:54;;;;;;;2.28;1.70;;;;;;;;;;8289559;28;20091;-64
2023/01/28 04:36:54;;;;;;;2.08;1.58;;;;;;;;;;8286663;28;20116;-64
2023/01/28 04:40:54;;;;;;;1.70;1.60;;;;;;;;;;8291443;28;20057;-64
2023/01/28 04:44:55;;;;;;;5.65;1.90;;;;;;;;;;8288154;28;20275;-64
2023/01/28 04:48:55;;;;;;;1.95;1.75;;;;;;;;;;8287273;28;20037;-65
2023/01/28 04:52:55;;;;;;;1.85;1.52;;;;;;;;;;8289941;28;20641;-64
2023/01/28 04:56:55;;;;;;;1.90;1.65;;;;;;;;;;8290392;28;20351;-64
2023/01/28 05:00:56;;;;;;;3.42;1.55;;;;;;;;;;8288288;28;20041;-66
2023/01/28 05:04:56;;;;;;;3.25;1.80;;;;;;;;;;8289345;28;20504;-65
2023/01/28 05:08:56;;;;;;;1.48;1.30;;;;;;;;;;8287518;28;20643;-64
2023/01/28 05:12:57;;;;;;;1.70;1.60;;;;;;;;;;8288049;28;20026;-65
2023/01/28 05:16:57;;;;;;;2.42;1.60;;;;;;;;;;8289631;28;20580;-64
2023/01/28 05:20:57;;;;;;;1.48;1.38;;;;;;;;;;8285570;28;20546;-64
2023/01/28 05:24:57;;;;;;;1.70;1.60;;;;;;;;;;8287775;28;20056;-64
2023/01/28 05:28:57;;;;;;;2.00;1.65;;;;;;;;;;8287892;28;20031;-65
2023/01/28 05:32:57;;;;;;;1.67;1.58;;;;;;;;;;8288689;28;20220;-64
2023/01/28 05:36:58;;;;;;;1.67;1.45;;;;;;;;;;8291533;28;20511;-64
2023/01/28 05:40:58;;;;;;;2.58;1.52;;;;;;;;;;8295128;28;20560;-64
2023/01/28 05:44:59;;;;;;;2.35;1.73;;;;;;;;;;8291816;28;20021;-64
2023/01/28 05:49:00;;;;;;;1.50;1.40;;;;;;;;;;8296063;28;20034;-64
2023/01/28 05:53:00;;;;;;;2.65;2.42;;;;;;;;;;8294726;28;20690;-64
2023/01/28 05:57:00;;;;;;;1.73;1.63;;;;;;;;;;8294588;28;20130;-64
2023/01/28 06:01:02;;;;;;;1.67;1.58;;;;;;;;;;8294269;28;20596;-64
2023/01/28 06:05:03;;;;;;;2.10;1.90;;;;;;;;;;8294842;28;20079;-65
2023/01/28 06:09:03;;;;;;;1.63;1.53;;;;;;;;;;8296159;28;20537;-63
2023/01/28 06:13:03;;;;;;;2.08;1.85;;;;;;;;;;8301985;28;20658;-64
2023/01/28 06:17:03;;;;;;;2.33;1.57;;;;;;;;;;8299666;28;20038;-64
2023/01/28 06:21:04;;;;;;;1.85;1.60;;;;;;;;;;8299908;28;20361;-63
2023/01/28 06:25:04;;;;;;;2.10;1.80;;;;;;;;;;8294816;28;20474;-64
2023/01/28 06:29:04;;;;;;;1.50;1.40;;;;;;;;;;8292268;28;20284;-64
2023/01/28 06:33:05;;;;;;;1.73;1.50;;;;;;;;;;8294635;28;20037;-64
2023/01/28 06:37:05;;;;;;;1.60;1.50;;;;;;;;;;8292223;28;20021;-64
2023/01/28 06:41:05;;;;;;;1.50;1.40;;;;;;;;;;8293566;28;20041;-63
2023/01/28 06:45:06;;;;;;;2.58;1.60;;;;;;;;;;8292691;28;20021;-64
2023/01/28 06:49:06;;;;;;;1.60;1.50;;;;;;;;;;8295055;28;20552;-64
2023/01/28 06:53:06;;;;;;;1.48;1.38;;;;;;;;;;8292883;28;20026;-64
2023/01/28 06:57:06;;;;;;;1.58;1.48;;;;;;;;;;8291536;28;20029;-64
2023/01/28 07:01:06;;;;;;;1.30;1.20;;;;;;;;;;8281586;28;20327;-64
2023/01/28 07:05:07;;;;;;;1.35;1.23;;;;;;;;;;8290067;28;20083;-64
2023/01/28 07:09:07;;;;;;;1.40;1.30;;;;;;;;;;8289772;28;20025;-65
2023/01/28 07:13:07;;;;;;;1.52;1.35;;;;;;;;;;8291205;28;20383;-64
2023/01/28 07:17:07;;;;;;;1.95;1.50;;;;;;;;;;8291490;28;20034;-65
2023/01/28 07:21:07;;;;;;;2.35;1.58;;;;;;;;;;8289491;28;20030;-64
2023/01/28 07:25:08;;;;;;;1.95;1.60;;;;;;;;;;8291489;28;20034;-64
2023/01/28 07:29:08;;;;;;;1.48;1.38;;;;;;;;;;8290258;28;20516;-64
2023/01/28 07:33:08;;;;;;;1.83;1.65;;;;;;;;;;8289547;28;20057;-65
2023/01/28 07:37:09;;;;;;;1.60;1.50;;;;;;;;;;8290957;28;20587;-64
2023/01/28 07:41:09;;;;;;;2.10;1.77;;;;;;;;;;8291683;28;20118;-64
2023/01/28 07:45:11;;;;;;;2.22;1.80;;;;;;;;;;8293628;28;20017;-64
2023/01/28 07:49:11;;;;;;;2.03;1.60;;;;;;;;;;8292569;28;20024;-64
2023/01/28 07:53:11;;;;;;;1.77;1.60;;;;;;;;;;8290221;28;20025;-64
2023/01/28 07:57:11;;;;;;;2.88;1.60;;;;;;;;;;8288592;28;20041;-64
2023/01/28 08:01:13;;;;;;;2.15;1.50;;;;;;;;;;8290055;28;20045;-64
2023/01/28 08:05:17;;;;;;;4.05;1.80;;;;;;;;;;8291355;28;20536;-64
2023/01/28 08:09:17;;;;;;;1.80;1.70;;;;;;;;;;8288282;28;20036;-64
2023/01/28 08:13:17;;;;;;;1.95;1.70;;;;;;;;;;8288946;28;20041;-64
2023/01/28 08:17:18;;;;;;;2.10;1.70;;;;;;;;;;8287413;28;20088;-64
2023/01/28 08:21:18;;;;;;;1.60;1.50;;;;;;;;;;8288159;28;20107;-64
2023/01/28 08:25:18;;;;;;;2.13;1.60;;;;;;;;;;8288545;28;20033;-64
2023/01/28 08:29:18;;;;;;;1.85;1.67;;;;;;;;;;8286053;28;20429;-64
2023/01/28 08:33:19;;;;;;;2.55;1.88;;;;;;;;;;8286346;28;20578;-65
2023/01/28 08:37:19;;;;;;;3.15;1.90;;;;;;;;;;8288318;28;20027;-64
2023/01/28 08:41:22;;;;;;;2.15;1.52;;;;;;;;;;8286888;28;20107;-64
2023/01/28 08:45:24;;;;;;;3.38;1.70;;;;;;;;;;8289405;28;20048;-64
2023/01/28 08:49:24;;;;;;;2.72;2.03;;;;;;;;;;8287126;28;21128;-64
2023/01/28 08:53:24;;;;;;;2.00;1.70;;;;;;;;;;8289131;28;20174;-64
2023/01/28 08:57:24;;;;;;;2.30;1.73;;;;;;;;;;8289290;28;20021;-64
2023/01/28 09:01:28;;;;;;;3.38;2.33;;;;;;;;;;8288302;28;20144;-64
2023/01/28 09:05:28;;;;;;;2.13;1.92;;;;;;;;;;8288902;28;20568;-65
2023/01/28 09:09:29;;;;;;;2.25;2.00;;;;;;;;;;8287419;28;20026;-64
2023/01/28 09:13:30;;;;;;;2.78;1.77;;;;;;;;;;8288506;28;20029;-64
2023/01/28 09:17:30;;;;;;;4.35;2.10;;;;;;;;;;8286181;28;20043;-64
2023/01/28 09:21:30;;;;;;;2.38;2.00;;;;;;;;;;8279866;28;20512;-65
2023/01/28 09:25:31;;;;;;;2.20;2.00;;;;;;;;;;8287359;28;20060;-64
2023/01/28 09:29:34;;;;;;;4.40;2.53;;;;;;;;;;8286140;28;20029;-64
2023/01/28 09:33:35;;;;;;;3.43;2.10;;;;;;;;;;8284911;28;20429;-64
2023/01/28 09:37:35;;;;;;;2.75;2.25;;;;;;;;;;8283501;28;20068;-64
2023/01/28 09:41:39;;;;;;;4.47;2.17;;;;;;;;;;8286910;28;20530;-64
2023/01/28 09:45:41;;;;;;;2.08;1.92;;;;;;;;;;8282540;28;20571;-64
2023/01/28 09:49:46;;;;;;;3.35;2.30;;;;;;;;;;8286554;28;20607;-64
2023/01/28 09:53:50;;;;;;;2.35;2.15;;;;;;;;;;8285666;28;20029;-64
2023/01/28 09:57:52;;;;;;;3.47;2.10;;;;;;;;;;8286018;28;20025;-64
2023/01/28 10:01:54;;;;;;;2.25;1.83;;;;;;;;;;8284928;28;20091;-64
2023/01/28 10:05:55;;;;;;;2.22;2.03;;;;;;;;;;8283416;28;20622;-64
2023/01/28 10:10:00;;;;;;;3.65;2.20;;;;;;;;;;8281132;28;20526;-64
2023/01/28 10:14:08;;;;;;;1.98;1.80;;;;;;;;;;8288220;28;20025;-64
2023/01/28 10:18:09;;;;;;;2.22;1.80;;;;;;;;;;8287023;28;20416;-62
2023/01/28 10:22:22;;;;;;;2.15;1.90;;;;;;;;;;8290243;28;20074;-63
2023/01/28 10:26:24;;;;;;;4.28;1.83;;;;;;;;;;8291842;28;20557;-63
2023/01/28 10:30:30;;;;;;;2.53;2.00;;;;;;;;;;8288549;28;20577;-63
2023/01/28 10:34:30;;;;;;;3.10;2.17;;;;;;;;;;8292857;28;20490;-63
2023/01/28 10:38:30;;;;;;;3.28;2.20;;;;;;;;;;8292972;28;20483;-63
2023/01/28 10:42:30;;;;;;;2.95;2.20;;;;;;;;;;8291195;28;20018;-63
2023/01/28 10:46:32;;;;;;;2.75;2.20;;;;;;;;;;8292601;28;20037;-63
2023/01/28 10:50:34;;;;;;;2.35;1.90;;;;;;;;;;8293128;28;20168;-63
2023/01/28 10:54:34;;;;;;;7.50;2.13;;;;;;;;;;8293948;28;20029;-63
2023/01/28 10:58:35;;;;;;;3.33;2.22;;;;;;;;;;8293427;28;20029;-63
2023/01/28 11:02:36;;;;;;;2.08;1.77;;;;;;;;;;8289952;28;20079;-63
2023/01/28 11:06:36;;;;;;;2.35;2.10;;;;;;;;;;8293738;28;20029;-62
2023/01/28 11:10:37;;;;;;;4.32;2.45;;;;;;;;;;8292725;28;20233;-63
2023/01/28 11:14:37;;;;;;;3.10;2.20;;;;;;;;;;8291925;28;20071;-63
2023/01/28 11:18:38;;;;;;;3.95;1.90;;;;;;;;;;8295567;28;20041;-63
2023/01/28 11:22:41;;;;;;;1.92;1.63;;;;;;;;;;8292568;28;20504;-63
2023/01/28 11:26:46;;;;;;;2.45;1.80;;;;;;;;;;8291666;28;20020;-63
2023/01/28 11:30:52;;;;;;;2.08;1.90;;;;;;;;;;8290724;28;20030;-63
2023/01/28 11:34:56;;;;;;;2.95;1.88;;;;;;;;;;8293175;28;20445;-63
2023/01/28 11:38:56;;;;;;;2.35;1.70;;;;;;;;;;8290292;28;20025;-63
2023/01/28 11:42:57;;;;;;;3.42;1.80;;;;;;;;;;8292186;28;20029;-63
2023/01/28 11:46:57;;;;;;;1.85;1.70;;;;;;;;;;8290459;28;20049;-63
2023/01/28 11:51:03;;;;;;;3.35;1.58;;;;;;;;;;8293412;28;20028;-63
2023/01/28 11:55:03;;;;;;;2.65;1.70;;;;;;;;;;8291397;28;20031;-63
2023/01/28 11:59:24;;;;;;;4.57;1.77;;;;;;;;;;8290243;28;20446;-63
2023/01/28 12:03:33;;;;;;;1.50;1.40;;;;;;;;;;8290475;28;20041;-63
2023/01/28 12:07:52;;;;;;;2.83;1.45;;;;;;;;;;8290164;28;20033;-63
2023/01/28 12:12:11;;;;;;;3.08;1.50;;;;;;;;;;8287150;28;20076;-63
2023/01/28 12:16:30;;;;;;;2.17;1.42;;;;;;;;;;8287571;28;20033;-62
2023/01/28 12:20:30;;;;;;;1.50;1.40;;;;;;;;;;8290043;28;20025;-62
2023/01/28 12:24:49;;;;;;;2.80;1.70;;;;;;;;;;8289190;28;20014;-65
2023/01/28 12:29:00;;;;;;;1.40;1.33;;;;;;;;;;8291791;28;20028;-63
2023/01/28 12:33:18;;;;;;;1.88;1.40;;;;;;;;;;8288012;28;20792;-63
2023/01/28 12:37:28;;;;;;;4.32;1.70;;;;;;;;;;8289170;28;20079;-62
2023/01/28 12:41:34;;;;;;;1.65;1.50;;;;;;;;;;8286948;28;20026;-62
2023/01/28 12:45:45;;;;;;;1.50;1.40;;;;;;;;;;8286612;28;20410;-62
2023/01/28 12:49:52;;;;;;;2.10;1.52;;;;;;;;;;8289584;28;20017;-62
2023/01/28 12:53:57;;;;;;;1.48;1.38;;;;;;;;;;8284915;28;20592;-62
2023/01/28 12:57:57;;;;;;;2.38;1.45;;;;;;;;;;8288429;28;20034;-62
2023/01/28 13:02:10;;;;;;;1.60;1.30;;;;;;;;;;8286212;28;20589;-62
2023/01/28 13:06:15;;;;;;;1.77;1.63;;;;;;;;;;8285621;28;20418;-62
2023/01/28 13:10:25;;;;;;;1.67;1.40;;;;;;;;;;8286480;28;20398;-62
2023/01/28 13:14:28;;;;;;;1.73;1.40;;;;;;;;;;8286697;28;20021;-62
2023/01/28 13:18:34;;;;;;;1.50;1.40;;;;;;;;;;8285403;28;20058;-62
2023/01/28 13:22:35;;;;;;;3.35;1.70;;;;;;;;;;8288910;28;20276;-62
2023/01/28 13:26:40;;;;;;;2.22;1.38;;;;;;;;;;8284611;28;20037;-63
2023/01/28 13:30:48;;;;;;;2.13;1.27;;;;;;;;;;8284173;28;20660;-62
2023/01/28 13:34:55;;;;;;;1.65;1.33;;;;;;;;;;8286562;28;20029;-62
2023/01/28 13:39:06;;;;;;;1.77;1.30;;;;;;;;;;8285901;28;20025;-62
2023/01/28 13:43:25;;;;;;;2.28;1.65;;;;;;;;;;8284245;28;20029;-61
2023/01/28 13:47:29;;;;;;;2.28;1.42;;;;;;;;;;8283086;28;20065;-62
2023/01/28 13:51:31;;;;;;;4.72;1.70;;;;;;;;;;8283322;28;21729;-62
2023/01/28 13:55:36;;;;;;;1.83;1.38;;;;;;;;;;8282922;28;20037;-62
2023/01/28 13:59:40;;;;;;;1.70;1.40;;;;;;;;;;8291492;28;20029;-61
2023/01/28 14:03:43;;;;;;;1.43;1.27;;;;;;;;;;8290408;28;20060;-62
2023/01/28 14:08:02;;;;;;;1.30;1.20;;;;;;;;;;8290741;28;20445;-62
2023/01/28 14:12:29;;;;;;;2.20;1.60;;;;;;;;;;8289663;28;20174;-62
2023/01/28 14:16:51;;;;;;;1.83;1.20;;;;;;;;;;8290631;28;20589;-62
2023/01/28 14:20:52;;;;;;;1.30;1.20;;;;;;;;;;8289780;28;20059;-62
2023/01/28 14:24:53;;;;;;;1.23;1.13;;;;;;;;;;8289566;28;20144;-63
2023/01/28 14:28:53;;;;;;;2.05;1.38;;;;;;;;;;8294843;28;20096;-62
2023/01/28 14:32:54;;;;;;;2.78;1.38;;;;;;;;;;8285465;28;20128;-62
2023/01/28 14:36:56;;;;;;;1.40;1.20;;;;;;;;;;8290095;28;20498;-62
2023/01/28 14:40:57;;;;;;;1.80;1.35;;;;;;;;;;8290083;28;20027;-62
2023/01/28 14:45:00;;;;;;;1.85;1.15;;;;;;;;;;8288186;28;20036;-62
2023/01/28 14:49:07;;;;;;;2.70;1.40;;;;;;;;;;8286807;28;20057;-62
2023/01/28 14:53:13;;;;;;;3.78;1.40;;;;;;;;;;8288048;28;20033;-62
2023/01/28 14:57:31;;;;;;;1.35;1.25;;;;;;;;;;8290573;28;20500;-62
2023/01/28 15:01:31;;;;;;;3.03;1.08;;;;;;;;;;8286576;28;20037;-62
2023/01/28 15:05:32;;;;;;;1.00;1.00;;;;;;;;;;8287880;28;20430;-62
2023/01/28 15:09:32;;;;;;;1.50;1.00;;;;;;;;;;8292956;28;20270;-62
2023/01/28 15:13:35;;;;;;;1.00;1.00;;;;;;;;;;8296310;28;20021;-62
2023/01/28 15:17:35;;;;;;;1.88;1.30;;;;;;;;;;8291956;28;20040;-62
2023/01/28 15:21:36;;;;;;;1.03;1.03;;;;;;;;;;8295973;28;20025;-62
2023/01/28 15:25:36;;;;;;;1.33;1.20;;;;;;;;;;8292114;28;20275;-62
2023/01/28 15:29:36;;;;;;;1.10;1.10;;;;;;;;;;8291729;28;20382;-62
2023/01/28 15:33:37;;;;;;;1.10;1.00;;;;;;;;;;8293187;28;20029;-62
2023/01/28 15:37:37;;;;;;;1.00;1.00;;;;;;;;;;8291798;28;20140;-62
2023/01/28 15:41:38;;;;;;;1.60;1.23;;;;;;;;;;8291361;28;20021;-61
2023/01/28 15:45:43;;;;;;;1.08;1.08;;;;;;;;;;8291370;28;20041;-62
2023/01/28 15:49:44;;;;;;;1.70;1.60;;;;;;;;;;8292419;28;20025;-62
2023/01/28 15:53:46;;;;;;;1.15;1.05;;;;;;;;;;8294780;28;20021;-62
2023/01/28 15:57:47;;;;;;;1.55;1.45;;;;;;;;;;8293619;28;20033;-62
2023/01/28 16:01:47;;;;;;;2.40;1.25;;;;;;;;;;8289451;28;20136;-62
2023/01/28 16:05:59;;;;;;;2.20;1.20;;;;;;;;;;8292635;28;20654;-62
2023/01/28 16:10:00;;;;;;;3.70;1.55;;;;;;;;;;8285303;28;20025;-62
2023/01/28 16:14:00;;;;;;;1.63;1.42;;;;;;;;;;8284900;28;20036;-62
2023/01/28 16:18:02;;;;;;;2.17;1.10;;;;;;;;;;8285594;28;20513;-62
2023/01/28 16:22:04;;;;;;;1.10;1.10;;;;;;;;;;8285262;28;20158;-62
2023/01/28 16:26:37;;;;;;;1.10;1.08;;;;;;;;;;8289557;28;20353;-62
2023/01/28 16:30:37;;;;;;;1.42;1.00;;;;;;;;;;8275568;28;20395;-62
2023/01/28 16:34:41;;;;;;;1.42;1.10;;;;;;;;;;8285443;28;20034;-62
2023/01/28 16:38:41;;;;;;;1.73;1.33;;;;;;;;;;8286295;28;20026;-62
2023/01/28 16:42:43;;;;;;;1.33;1.23;;;;;;;;;;8285108;28;20446;-62
2023/01/28 16:46:43;;;;;;;1.23;1.10;;;;;;;;;;8281031;28;20022;-63
2023/01/28 16:50:43;;;;;;;1.20;1.10;;;;;;;;;;8286288;28;20025;-62
2023/01/28 16:54:46;;;;;;;1.38;1.10;;;;;;;;;;8284059;28;20521;-63
2023/01/28 16:58:46;;;;;;;1.30;1.20;;;;;;;;;;8287137;28;20107;-63
2023/01/28 17:02:47;;;;;;;1.33;1.08;;;;;;;;;;8284455;28;20041;-62
2023/01/28 17:06:47;;;;;;;1.10;1.10;;;;;;;;;;8279907;28;20028;-62
2023/01/28 17:10:51;;;;;;;1.90;1.20;;;;;;;;;;8282375;28;20177;-62
2023/01/28 17:14:52;;;;;;;1.90;1.20;;;;;;;;;;8280141;28;20018;-62
2023/01/28 17:18:52;;;;;;;1.20;1.10;;;;;;;;;;8280105;28;20547;-62
2023/01/28 17:22:53;;;;;;;1.95;1.10;;;;;;;;;;8283378;28;20029;-62
2023/01/28 17:26:53;;;;;;;0.98;0.98;;;;;;;;;;8283566;28;20021;-62
2023/01/28 17:30:53;;;;;;;1.70;1.02;;;;;;;;;;8283592;28;20032;-62
2023/01/28 17:34:53;;;;;;;1.90;1.23;;;;;;;;;;8289740;28;20119;-62
2023/01/28 17:38:54;;;;;;;1.75;1.35;;;;;;;;;;8293577;28;20796;-63
2023/01/28 17:42:54;;;;;;;1.83;1.30;;;;;;;;;;8294108;28;20889;-62
2023/01/28 17:46:55;;;;;;;2.08;1.30;;;;;;;;;;8290691;28;20037;-62
2023/01/28 17:50:55;;;;;;;1.70;1.30;;;;;;;;;;8290471;28;20033;-62
2023/01/28 17:54:56;;;;;;;1.95;1.38;;;;;;;;;;8290408;28;20480;-62
2023/01/28 17:58:57;;;;;;;1.47;1.30;;;;;;;;;;8292564;28;20017;-62
2023/01/28 18:02:57;;;;;;;7.93;2.55;;;;;;;;;;8288824;28;20708;-62
2023/01/28 18:06:57;;;;;;;1.30;1.20;;;;;;;;;;8293344;28;20033;-63
2023/01/28 18:10:58;;;;;;;1.02;1.02;;;;;;;;;;8289672;28;20380;-62
2023/01/28 18:14:58;;;;;;;2.10;1.45;;;;;;;;;;8291420;28;20029;-63
2023/01/28 18:18:58;;;;;;;1.40;1.30;;;;;;;;;;8290791;28;20501;-62
2023/01/28 18:22:59;;;;;;;1.48;1.38;;;;;;;;;;8288295;28;20045;-62
2023/01/28 18:26:59;;;;;;;1.20;1.10;;;;;;;;;;8290104;28;20033;-62
2023/01/28 18:31:03;;;;;;;1.65;1.55;;;;;;;;;;8286993;28;20211;-62
2023/01/28 18:35:05;;;;;;;1.60;1.45;;;;;;;;;;8287976;28;20022;-62
2023/01/28 18:39:05;;;;;;;1.33;1.23;;;;;;;;;;8290638;28;20079;-62
2023/01/28 18:43:05;;;;;;;1.40;1.30;;;;;;;;;;8284972;28;20030;-62
2023/01/28 18:47:05;;;;;;;2.67;1.50;;;;;;;;;;8286796;28;20403;-62
2023/01/28 18:51:06;;;;;;;1.45;1.35;;;;;;;;;;8290323;28;20486;-62
2023/01/28 18:55:06;;;;;;;1.50;1.40;;;;;;;;;;8289653;28;20568;-63
2023/01/28 18:59:09;;;;;;;2.85;1.33;;;;;;;;;;8288403;28;20029;-62
2023/01/28 19:03:09;;;;;;;4.85;1.90;;;;;;;;;;8284866;28;20141;-65
2023/01/28 19:07:09;;;;;;;3.67;1.35;;;;;;;;;;8286949;28;20867;-62
2023/01/28 19:11:09;;;;;;;3.60;1.60;;;;;;;;;;8288663;28;20052;-63
2023/01/28 19:15:10;;;;;;;3.15;1.75;;;;;;;;;;8286590;28;20028;-63
2023/01/28 19:19:10;;;;;;;2.72;1.30;;;;;;;;;;8289440;28;20293;-62
2023/01/28 19:23:11;;;;;;;4.27;1.47;;;;;;;;;;8288968;28;20598;-63
2023/01/28 19:27:11;;;;;;;1.70;1.60;;;;;;;;;;8286458;28;20288;-63
2023/01/28 19:31:11;;;;;;;2.33;1.90;;;;;;;;;;8288741;28;20064;-62
2023/01/28 19:35:11;;;;;;;2.38;1.60;;;;;;;;;;8287671;28;20156;-62
2023/01/28 19:39:12;;;;;;;2.33;1.70;;;;;;;;;;8288619;28;21387;-62
2023/01/28 19:43:12;;;;;;;2.78;1.70;;;;;;;;;;8289309;28;20037;-62
2023/01/28 19:47:13;;;;;;;2.75;1.50;;;;;;;;;;8286279;28;20037;-62
2023/01/28 19:51:13;;;;;;;1.75;1.35;;;;;;;;;;8287113;28;20339;-63
2023/01/28 19:55:13;;;;;;;2.00;1.80;;;;;;;;;;8289027;28;20288;-62
2023/01/28 19:59:14;;;;;;;1.73;1.63;;;;;;;;;;8288512;28;20037;-63
2023/01/28 20:03:15;;;;;;;2.47;1.73;;;;;;;;;;8289134;28;20048;-62
2023/01/28 20:07:15;;;;;;;3.22;1.80;;;;;;;;;;8287414;28;20025;-63
2023/01/28 20:11:15;;;;;;;3.10;1.73;;;;;;;;;;8284895;28;20356;-62
2023/01/28 20:15:15;;;;;;;1.83;1.70;;;;;;;;;;8283109;28;20485;-62
2023/01/28 20:19:16;;;;;;;3.10;1.80;;;;;;;;;;8285931;28;20091;-62
2023/01/28 20:23:16;;;;;;;2.05;1.80;;;;;;;;;;8285004;28;20280;-62
2023/01/28 20:27:17;;;;;;;3.97;1.60;;;;;;;;;;8284743;28;20027;-63
2023/01/28 20:31:17;;;;;;;2.10;1.70;;;;;;;;;;8280491;28;20079;-63
2023/01/28 20:35:17;;;;;;;2.13;1.67;;;;;;;;;;8279517;28;20065;-63
2023/01/28 20:39:18;;;;;;;3.20;1.90;;;;;;;;;;8282185;28;20021;-63
2023/01/28 20:43:19;;;;;;;2.20;2.00;;;;;;;;;;8280346;28;20029;-62
2023/01/28 20:47:20;;;;;;;1.73;1.60;;;;;;;;;;8281468;28;20068;-63
2023/01/28 20:51:21;;;;;;;1.70;1.60;;;;;;;;;;8286508;28;20021;-62
2023/01/28 20:55:21;;;;;;;2.78;1.73;;;;;;;;;;8283260;28;20128;-62
2023/01/28 20:59:22;;;;;;;1.55;1.45;;;;;;;;;;8284552;28;20049;-62
2023/01/28 21:03:23;;;;;;;1.85;1.65;;;;;;;;;;8282593;28;20049;-62
2023/01/28 21:07:23;;;;;;;2.30;1.75;;;;;;;;;;8282606;28;20022;-62
2023/01/28 21:11:24;;;;;;;2.17;1.52;;;;;;;;;;8286080;28;21166;-62
2023/01/28 21:15:25;;;;;;;2.25;1.52;;;;;;;;;;8285731;28;20041;-63
2023/01/28 21:19:25;;;;;;;1.70;1.60;;;;;;;;;;8282822;28;20060;-63
2023/01/28 21:23:25;;;;;;;1.95;1.48;;;;;;;;;;8283168;28;20108;-63
2023/01/28 21:27:25;;;;;;;1.55;1.45;;;;;;;;;;8284724;28;20052;-62
2023/01/28 21:31:25;;;;;;;1.58;1.48;;;;;;;;;;8280862;28;20569;-63
2023/01/28 21:35:26;;;;;;;2.33;1.30;;;;;;;;;;8286880;28;20752;-62
2023/01/28 21:39:26;;;;;;;1.63;1.50;;;;;;;;;;8283869;28;20299;-62
2023/01/28 21:43:26;;;;;;;1.48;1.35;;;;;;;;;;8286247;28;20498;-62
2023/01/28 21:47:26;;;;;;;4.82;1.40;;;;;;;;;;8281607;28;20026;-62
2023/01/28 21:51:39;;;;;;;1.50;1.40;;;;;;;;;;8285751;28;20021;-62
2023/01/28 21:55:39;;;;;;;1.70;1.25;;;;;;;;;;8287165;28;20274;-62
2023/01/28 21:59:39;;;;;;;1.42;1.33;;;;;;;;;;8284479;28;20528;-62
2023/01/28 22:03:40;;;;;;;2.03;1.70;;;;;;;;;;8284531;28;20077;-62
2023/01/28 22:07:40;;;;;;;1.80;1.70;;;;;;;;;;8287647;28;20504;-62
2023/01/28 22:11:41;;;;;;;2.50;1.60;;;;;;;;;;8287417;28;20056;-62
2023/01/28 22:15:41;;;;;;;1.73;1.63;;;;;;;;;;8286394;28;20048;-62
2023/01/28 22:19:46;;;;;;;4.38;1.40;;;;;;;;;;8291743;28;20025;-62
2023/01/28 22:23:46;;;;;;;1.55;1.45;;;;;;;;;;8291547;28;20053;-62
2023/01/28 22:27:47;;;;;;;1.50;1.40;;;;;;;;;;8291186;28;20310;-62
2023/01/28 22:31:48;;;;;;;2.25;1.60;;;;;;;;;;8292620;28;20037;-62
2023/01/28 22:35:49;;;;;;;1.67;1.58;;;;;;;;;;8292688;28;20033;-63
2023/01/28 22:39:49;;;;;;;1.83;1.50;;;;;;;;;;8294679;28;20423;-62
2023/01/28 22:43:50;;;;;;;1.80;1.50;;;;;;;;;;8290768;28;21383;-62
2023/01/28 22:47:50;;;;;;;1.50;1.40;;;;;;;;;;8289273;28;20521;-62
2023/01/28 22:51:50;;;;;;;5.85;2.05;;;;;;;;;;8294293;28;20070;-62
2023/01/28 22:55:53;;;;;;;1.77;1.67;;;;;;;;;;8291759;28;20033;-62
2023/01/28 22:59:53;;;;;;;3.22;1.88;;;;;;;;;;8289992;28;20037;-62
2023/01/28 23:03:55;;;;;;;3.08;1.90;;;;;;;;;;8293277;28;20833;-62
2023/01/28 23:08:08;;;;;;;2.72;1.80;;;;;;;;;;8292362;28;20027;-63
2023/01/28 23:12:09;;;;;;;2.08;1.85;;;;;;;;;;8294702;28;20510;-62
2023/01/28 23:24:47;;;;;;;1.55;1.45;;;;;;;;;;8292288;28;20545;-62
2023/01/28 23:28:47;;;;;;;2.70;1.80;;;;;;;;;;8291407;28;20049;-63
2023/01/28 23:32:48;;;;;;;1.95;1.60;;;;;;;;;;8290149;28;20029;-62
2023/01/28 23:36:49;;;;;;;1.70;1.60;;;;;;;;;;8293774;28;20128;-63
2023/01/28 23:40:49;;;;;;;5.32;2.50;;;;;;;;;;8292611;28;20034;-62
2023/01/28 23:44:49;;;;;;;2.35;1.92;;;;;;;;;;8291155;28;20656;-62
2023/01/28 23:48:50;;;;;;;2.40;1.90;;;;;;;;;;8291760;28;20557;-62
2023/01/28 23:52:50;;;;;;;2.70;1.95;;;;;;;;;;8291943;28;20565;-62
2023/01/28 23:56:50;;;;;;;4.22;2.13;;;;;;;;;;8291392;28;20032;-62
